sensor_id;sensor_type;location;lat;lon;timestamp;temperature;humidity
77039;DHT22;65970;50.476;4.840;2023-04-19T00:01:16;11.10;47.70
77039;DHT22;65970;50.476;4.840;2023-04-19T00:06:17;11.00;46.90
77039;DHT22;65970;50.476;4.840;2023-04-19T00:11:17;11.00;47.70
77039;DHT22;65970;50.476;4.840;2023-04-19T00:16:18;11.00;48.70
77039;DHT22;65970;50.476;4.840;2023-04-19T00:21:18;11.00;47.70
77039;DHT22;65970;50.476;4.840;2023-04-19T00:26:19;10.90;47.90
77039;DHT22;65970;50.476;4.840;2023-04-19T00:31:19;10.90;47.60
77039;DHT22;65970;50.476;4.840;2023-04-19T00:36:19;10.80;47.40
77039;DHT22;65970;50.476;4.840;2023-04-19T00:41:20;10.80;48.30
77039;DHT22;65970;50.476;4.840;2023-04-19T00:46:20;10.80;47.30
77039;DHT22;65970;50.476;4.840;2023-04-19T00:51:21;10.80;47.20
77039;DHT22;65970;50.476;4.840;2023-04-19T00:56:22;10.70;47.30
77039;DHT22;65970;50.476;4.840;2023-04-19T01:01:22;10.80;47.80
77039;DHT22;65970;50.476;4.840;2023-04-19T01:06:23;10.70;46.30
77039;DHT22;65970;50.476;4.840;2023-04-19T01:11:23;10.70;48.60
77039;DHT22;65970;50.476;4.840;2023-04-19T01:16:27;10.70;49.20
77039;DHT22;65970;50.476;4.840;2023-04-19T01:21:27;10.70;48.50
77039;DHT22;65970;50.476;4.840;2023-04-19T01:26:27;10.60;47.90
77039;DHT22;65970;50.476;4.840;2023-04-19T01:31:28;10.60;49.00
77039;DHT22;65970;50.476;4.840;2023-04-19T01:36:28;10.60;49.00
77039;DHT22;65970;50.476;4.840;2023-04-19T01:41:29;10.70;49.50
77039;DHT22;65970;50.476;4.840;2023-04-19T01:46:29;10.60;47.90
77039;DHT22;65970;50.476;4.840;2023-04-19T01:51:29;10.60;48.30
77039;DHT22;65970;50.476;4.840;2023-04-19T01:56:30;10.70;49.60
77039;DHT22;65970;50.476;4.840;2023-04-19T02:01:30;10.60;48.90
77039;DHT22;65970;50.476;4.840;2023-04-19T02:06:31;10.60;49.10
77039;DHT22;65970;50.476;4.840;2023-04-19T02:11:31;10.60;50.20
77039;DHT22;65970;50.476;4.840;2023-04-19T02:16:32;10.60;47.30
77039;DHT22;65970;50.476;4.840;2023-04-19T02:21:32;10.60;50.30
77039;DHT22;65970;50.476;4.840;2023-04-19T02:26:32;10.50;49.50
77039;DHT22;65970;50.476;4.840;2023-04-19T02:31:33;10.60;50.50
77039;DHT22;65970;50.476;4.840;2023-04-19T02:36:33;10.60;49.90
77039;DHT22;65970;50.476;4.840;2023-04-19T02:41:34;10.60;50.30
77039;DHT22;65970;50.476;4.840;2023-04-19T02:46:34;10.60;50.40
77039;DHT22;65970;50.476;4.840;2023-04-19T02:51:35;10.50;52.20
77039;DHT22;65970;50.476;4.840;2023-04-19T02:56:35;10.50;49.80
77039;DHT22;65970;50.476;4.840;2023-04-19T03:01:35;10.50;51.00
77039;DHT22;65970;50.476;4.840;2023-04-19T03:06:36;10.50;50.00
77039;DHT22;65970;50.476;4.840;2023-04-19T03:11:36;10.50;50.30
77039;DHT22;65970;50.476;4.840;2023-04-19T03:16:37;10.50;50.60
77039;DHT22;65970;50.476;4.840;2023-04-19T03:21:37;10.50;51.00
77039;DHT22;65970;50.476;4.840;2023-04-19T03:26:37;10.40;51.10
77039;DHT22;65970;50.476;4.840;2023-04-19T03:31:38;10.50;51.40
77039;DHT22;65970;50.476;4.840;2023-04-19T03:36:39;10.50;51.20
77039;DHT22;65970;50.476;4.840;2023-04-19T03:41:39;10.50;50.90
77039;DHT22;65970;50.476;4.840;2023-04-19T03:46:40;10.50;52.20
77039;DHT22;65970;50.476;4.840;2023-04-19T03:51:40;10.40;51.80
77039;DHT22;65970;50.476;4.840;2023-04-19T03:56:41;10.40;53.00
77039;DHT22;65970;50.476;4.840;2023-04-19T04:01:41;10.40;53.40
77039;DHT22;65970;50.476;4.840;2023-04-19T04:06:41;10.40;52.60
77039;DHT22;65970;50.476;4.840;2023-04-19T04:11:42;10.30;53.40
77039;DHT22;65970;50.476;4.840;2023-04-19T04:16:42;10.40;53.80
77039;DHT22;65970;50.476;4.840;2023-04-19T04:21:43;10.40;53.90
77039;DHT22;65970;50.476;4.840;2023-04-19T04:26:43;10.30;53.10
77039;DHT22;65970;50.476;4.840;2023-04-19T04:31:44;10.40;53.90
77039;DHT22;65970;50.476;4.840;2023-04-19T04:36:44;10.40;53.90
77039;DHT22;65970;50.476;4.840;2023-04-19T04:41:46;10.30;53.40
77039;DHT22;65970;50.476;4.840;2023-04-19T04:46:48;10.20;52.90
77039;DHT22;65970;50.476;4.840;2023-04-19T05:07:22;10.20;53.90
77039;DHT22;65970;50.476;4.840;2023-04-19T05:12:24;10.20;54.00
77039;DHT22;65970;50.476;4.840;2023-04-19T05:27:45;10.20;55.00
77039;DHT22;65970;50.476;4.840;2023-04-19T05:32:46;10.20;55.50
77039;DHT22;65970;50.476;4.840;2023-04-19T05:37:46;10.20;56.40
77039;DHT22;65970;50.476;4.840;2023-04-19T05:42:47;10.30;56.20
77039;DHT22;65970;50.476;4.840;2023-04-19T05:47:47;10.30;57.40
77039;DHT22;65970;50.476;4.840;2023-04-19T05:52:47;10.40;58.10
77039;DHT22;65970;50.476;4.840;2023-04-19T06:13:19;10.40;57.90
77039;DHT22;65970;50.476;4.840;2023-04-19T06:18:19;10.50;58.30
77039;DHT22;65970;50.476;4.840;2023-04-19T06:23:20;10.50;59.20
77039;DHT22;65970;50.476;4.840;2023-04-19T06:28:20;10.60;59.80
77039;DHT22;65970;50.476;4.840;2023-04-19T06:38:31;10.60;58.80
77039;DHT22;65970;50.476;4.840;2023-04-19T09:00:03;14.20;45.20
77039;DHT22;65970;50.476;4.840;2023-04-19T09:31:14;14.90;42.70
77039;DHT22;65970;50.476;4.840;2023-04-19T09:41:25;15.10;40.90
77039;DHT22;65970;50.476;4.840;2023-04-19T09:46:32;15.20;41.90
77039;DHT22;65970;50.476;4.840;2023-04-19T09:51:39;15.40;37.60
77039;DHT22;65970;50.476;4.840;2023-04-19T09:56:40;15.50;39.40
77039;DHT22;65970;50.476;4.840;2023-04-19T10:01:44;15.60;39.20
77039;DHT22;65970;50.476;4.840;2023-04-19T10:06:48;15.60;36.70
77039;DHT22;65970;50.476;4.840;2023-04-19T10:11:52;15.60;38.30
77039;DHT22;65970;50.476;4.840;2023-04-19T10:16:55;15.60;39.80
77039;DHT22;65970;50.476;4.840;2023-04-19T10:22:03;15.90;41.30
77039;DHT22;65970;50.476;4.840;2023-04-19T10:27:13;16.00;40.10
77039;DHT22;65970;50.476;4.840;2023-04-19T10:32:14;16.10;41.40
77039;DHT22;65970;50.476;4.840;2023-04-19T10:37:14;16.30;40.40
77039;DHT22;65970;50.476;4.840;2023-04-19T10:47:42;16.60;38.70
77039;DHT22;65970;50.476;4.840;2023-04-19T10:52:43;16.60;40.40
77039;DHT22;65970;50.476;4.840;2023-04-19T10:58:02;16.70;39.20
77039;DHT22;65970;50.476;4.840;2023-04-19T11:08:22;16.60;37.80
77039;DHT22;65970;50.476;4.840;2023-04-19T11:18:33;17.00;35.60
77039;DHT22;65970;50.476;4.840;2023-04-19T11:23:34;17.20;37.80
77039;DHT22;65970;50.476;4.840;2023-04-19T11:28:34;17.40;33.90
77039;DHT22;65970;50.476;4.840;2023-04-19T11:33:35;17.60;30.80
77039;DHT22;65970;50.476;4.840;2023-04-19T11:38:36;17.50;33.30
77039;DHT22;65970;50.476;4.840;2023-04-19T11:43:36;17.70;31.80
77039;DHT22;65970;50.476;4.840;2023-04-19T11:48:37;17.80;31.30
77039;DHT22;65970;50.476;4.840;2023-04-19T11:53:38;18.20;30.80
77039;DHT22;65970;50.476;4.840;2023-04-19T11:58:42;18.50;32.40
77039;DHT22;65970;50.476;4.840;2023-04-19T12:03:50;19.00;28.60
77039;DHT22;65970;50.476;4.840;2023-04-19T12:08:51;19.20;29.30
77039;DHT22;65970;50.476;4.840;2023-04-19T12:19:11;20.20;27.80
77039;DHT22;65970;50.476;4.840;2023-04-19T12:24:13;20.30;24.60
77039;DHT22;65970;50.476;4.840;2023-04-19T12:29:14;20.30;23.90
77039;DHT22;65970;50.476;4.840;2023-04-19T12:34:14;20.60;25.10
77039;DHT22;65970;50.476;4.840;2023-04-19T12:39:15;20.80;22.10
77039;DHT22;65970;50.476;4.840;2023-04-19T12:44:15;20.90;19.00
77039;DHT22;65970;50.476;4.840;2023-04-19T12:49:18;21.00;19.30
77039;DHT22;65970;50.476;4.840;2023-04-19T12:54:19;20.90;17.30
77039;DHT22;65970;50.476;4.840;2023-04-19T12:59:19;20.80;15.80
77039;DHT22;65970;50.476;4.840;2023-04-19T13:04:20;21.00;17.70
77039;DHT22;65970;50.476;4.840;2023-04-19T13:09:22;21.30;16.50
77039;DHT22;65970;50.476;4.840;2023-04-19T13:14:22;21.30;13.70
77039;DHT22;65970;50.476;4.840;2023-04-19T13:19:23;21.10;11.40
77039;DHT22;65970;50.476;4.840;2023-04-19T13:24:23;21.30;10.00
77039;DHT22;65970;50.476;4.840;2023-04-19T13:29:24;21.40;8.20
77039;DHT22;65970;50.476;4.840;2023-04-19T13:34:24;21.50;7.30
77039;DHT22;65970;50.476;4.840;2023-04-19T13:39:25;21.60;5.70
77039;DHT22;65970;50.476;4.840;2023-04-19T13:44:25;21.60;5.00
77039;DHT22;65970;50.476;4.840;2023-04-19T13:49:25;21.60;5.00
77039;DHT22;65970;50.476;4.840;2023-04-19T13:54:26;21.60;5.00
77039;DHT22;65970;50.476;4.840;2023-04-19T13:59:26;21.60;5.00
77039;DHT22;65970;50.476;4.840;2023-04-19T14:04:27;21.40;5.00
77039;DHT22;65970;50.476;4.840;2023-04-19T14:09:27;21.30;5.00
77039;DHT22;65970;50.476;4.840;2023-04-19T14:14:28;21.20;5.00
77039;DHT22;65970;50.476;4.840;2023-04-19T14:19:28;21.00;5.00
77039;DHT22;65970;50.476;4.840;2023-04-19T14:24:28;20.60;5.00
77039;DHT22;65970;50.476;4.840;2023-04-19T14:29:29;20.10;5.00
77039;DHT22;65970;50.476;4.840;2023-04-19T14:34:29;19.90;5.00
77039;DHT22;65970;50.476;4.840;2023-04-19T14:39:30;19.60;5.00
77039;DHT22;65970;50.476;4.840;2023-04-19T14:44:30;19.40;5.00
77039;DHT22;65970;50.476;4.840;2023-04-19T14:49:30;18.80;5.00
77039;DHT22;65970;50.476;4.840;2023-04-19T14:54:31;18.40;5.00
77039;DHT22;65970;50.476;4.840;2023-04-19T14:59:32;18.10;5.00
77039;DHT22;65970;50.476;4.840;2023-04-19T15:04:33;17.90;5.00
77039;DHT22;65970;50.476;4.840;2023-04-19T15:09:33;17.80;5.00
77039;DHT22;65970;50.476;4.840;2023-04-19T15:14:33;17.60;5.00
77039;DHT22;65970;50.476;4.840;2023-04-19T15:19:34;17.30;5.00
77039;DHT22;65970;50.476;4.840;2023-04-19T15:24:34;17.20;5.00
77039;DHT22;65970;50.476;4.840;2023-04-19T15:29:35;17.10;5.00
77039;DHT22;65970;50.476;4.840;2023-04-19T15:34:35;17.00;5.00
77039;DHT22;65970;50.476;4.840;2023-04-19T15:39:36;16.90;5.00
77039;DHT22;65970;50.476;4.840;2023-04-19T18:50:51;13.60;7.70
77039;DHT22;65970;50.476;4.840;2023-04-19T18:55:53;13.50;8.90
77039;DHT22;65970;50.476;4.840;2023-04-19T19:00:54;13.40;7.80
77039;DHT22;65970;50.476;4.840;2023-04-19T19:05:55;13.30;8.10
77039;DHT22;65970;50.476;4.840;2023-04-19T19:10:55;13.20;7.90
77039;DHT22;65970;50.476;4.840;2023-04-19T19:15:56;13.20;7.90
77039;DHT22;65970;50.476;4.840;2023-04-19T19:20:57;13.10;8.20
77039;DHT22;65970;50.476;4.840;2023-04-19T19:25:57;12.90;7.50
77039;DHT22;65970;50.476;4.840;2023-04-19T19:30:58;12.90;7.80
77039;DHT22;65970;50.476;4.840;2023-04-19T19:35:58;12.80;6.90
77039;DHT22;65970;50.476;4.840;2023-04-19T19:41:04;12.70;8.00
77039;DHT22;65970;50.476;4.840;2023-04-19T19:46:05;12.70;8.40
77039;DHT22;65970;50.476;4.840;2023-04-19T19:51:06;12.70;7.70
77039;DHT22;65970;50.476;4.840;2023-04-19T19:56:06;12.60;8.30
